Langdon, Kansas
Current Conditions -  °F | °C
As of 6:55 PM on Tuesday 21 Oct 2014 (Local Time) from KPTT Reporting Station
Clear Clear  
Wind Chill: 73°   Ceiling: Unl
Heat Index: 73°   Visibility: 10mi
Dew Point: 52°   Wind: 9mph
Humidity: 47%   Direction: 170°S
Pressure: 30.01"   Gusts: NA
Location:  37.8171°N, 98.3602°W
Report Text: KPTT 212355Z AUTO 17008KT 10SM CLR 23/11 A3001 RMK AO2
Loading
Personal Weather Stations






























Interactive Weather Map
Tropical Storm Tracking
New forecast layout! Learn more

10-Day Weather Forecast

Advertisements
Track Severe Weather on mobile